Time;durP1;ratioP1;P1;durP2;ratioP2;P2;SDS_P1;SDS_P2;PMS_P1;PMS_P2;Temp;Humidity;BMP_temperature;BMP_pressure;BME280_temperature;BME280_humidity;BME280_pressure;Samples;Min_cycle;Max_cycle;Signal;HPM_P1;HPM_P2
2021/05/14 00:02:06;;;;;;;11.10;4.40;;;;;;;17.86;56.65;100883.59;5067626;28;20461;-66
2021/05/14 00:04:33;;;;;;;11.18;4.32;;;;;;;17.84;56.83;100883.63;5067401;28;20128;-66
2021/05/14 00:07:00;;;;;;;12.52;4.50;;;;;;;17.81;56.95;100872.09;5068137;28;20500;-66
2021/05/14 00:09:27;;;;;;;14.40;4.82;;;;;;;17.75;57.03;100875.72;5067134;28;20147;-67
2021/05/14 00:11:55;;;;;;;10.55;3.67;;;;;;;17.54;57.58;100883.94;5067917;28;20043;-66
2021/05/14 00:14:23;;;;;;;11.70;3.95;;;;;;;17.43;57.93;100884.06;5066797;28;20036;-67
2021/05/14 00:16:51;;;;;;;11.32;3.78;;;;;;;17.33;58.20;100876.16;5066849;28;20522;-67
2021/05/14 00:19:18;;;;;;;11.05;4.38;;;;;;;17.35;58.05;100875.25;5065649;28;20048;-67
2021/05/14 00:21:45;;;;;;;11.10;5.03;;;;;;;17.31;58.05;100875.31;5067489;28;20044;-66
2021/05/14 00:24:14;;;;;;;12.98;4.95;;;;;;;17.08;58.72;100879.06;5067151;28;20047;-66
2021/05/14 00:26:41;;;;;;;11.65;5.38;;;;;;;17.00;58.96;100880.91;5068080;28;20127;-66
2021/05/14 00:29:08;;;;;;;10.40;4.43;;;;;;;16.94;59.26;100891.63;5067418;28;20269;-66
2021/05/14 00:31:37;;;;;;;15.63;4.30;;;;;;;17.05;59.01;100884.44;5067180;28;20036;-66
2021/05/14 00:34:04;;;;;;;12.90;3.97;;;;;;;17.11;58.99;100880.84;5067684;28;20136;-67
2021/05/14 00:36:31;;;;;;;9.05;4.53;;;;;;;17.14;58.97;100881.66;5067021;28;20079;-66
2021/05/14 00:38:58;;;;;;;11.48;5.20;;;;;;;17.19;58.79;100879.00;5067048;28;20093;-67
2021/05/14 00:41:26;;;;;;;16.50;5.05;;;;;;;17.10;59.10;100895.06;5066919;28;20396;-66
2021/05/14 00:43:54;;;;;;;9.07;3.67;;;;;;;17.09;59.18;100890.63;5066868;28;20526;-64
2021/05/14 00:46:22;;;;;;;11.93;3.65;;;;;;;17.01;59.02;100888.03;5066313;28;20048;-64
2021/05/14 00:48:50;;;;;;;8.32;3.45;;;;;;;16.95;59.40;100892.53;5066995;28;20028;-64
2021/05/14 00:51:17;;;;;;;11.77;4.13;;;;;;;16.94;59.54;100896.97;5066286;28;20052;-64
2021/05/14 00:53:45;;;;;;;8.40;3.25;;;;;;;16.89;59.62;100892.56;5067850;28;20037;-64
2021/05/14 00:56:12;;;;;;;12.20;5.13;;;;;;;16.88;59.75;100898.78;5067134;28;20182;-64
2021/05/14 00:58:39;;;;;;;10.65;3.70;;;;;;;16.84;60.06;100894.41;5067794;28;20082;-64
2021/05/14 01:01:06;;;;;;;7.05;3.42;;;;;;;16.78;60.04;100895.34;5065416;28;20496;-64
2021/05/14 01:03:34;;;;;;;11.07;3.45;;;;;;;16.79;60.09;100894.44;5066412;28;20051;-64
2021/05/14 01:06:02;;;;;;;13.30;4.45;;;;;;;16.84;60.24;100902.41;5067624;28;20033;-64
2021/05/14 01:08:29;;;;;;;12.15;5.43;;;;;;;16.84;60.11;100899.72;5066324;28;20139;-64
2021/05/14 01:10:57;;;;;;;14.02;4.93;;;;;;;16.69;60.63;100900.72;5067387;28;20123;-64
2021/05/14 01:13:26;;;;;;;9.55;4.60;;;;;;;16.68;61.06;100898.94;5046746;28;20056;-64
2021/05/14 01:15:53;;;;;;;10.43;4.53;;;;;;;16.62;61.15;100896.34;5047471;28;20033;-64
2021/05/14 01:18:20;;;;;;;13.90;4.18;;;;;;;16.73;61.13;100899.81;5061724;28;20063;-64
2021/05/14 01:20:49;;;;;;;14.57;4.60;;;;;;;16.79;61.04;100899.78;5066952;28;20037;-64
2021/05/14 01:23:16;;;;;;;11.15;5.13;;;;;;;16.74;61.16;100912.22;5066326;28;20116;-64
2021/05/14 01:25:43;;;;;;;10.20;4.45;;;;;;;16.64;61.38;100899.88;5067639;28;20056;-64
2021/05/14 01:28:10;;;;;;;11.02;3.35;;;;;;;16.57;61.28;100907.00;5065949;28;20037;-64
2021/05/14 01:30:38;;;;;;;11.15;4.25;;;;;;;16.55;61.28;100899.91;5066933;28;20083;-64
2021/05/14 01:33:05;;;;;;;12.25;4.63;;;;;;;16.61;61.08;100902.56;5066901;28;20090;-64
2021/05/14 01:35:32;;;;;;;10.35;4.57;;;;;;;16.62;60.97;100896.34;5066272;28;20119;-64
2021/05/14 01:38:01;;;;;;;11.10;4.85;;;;;;;16.54;61.00;100904.34;5067235;28;20055;-64
2021/05/14 01:40:28;;;;;;;13.15;5.22;;;;;;;16.41;61.36;100901.78;5066167;28;20052;-65
2021/05/14 01:42:55;;;;;;;13.00;3.90;;;;;;;16.35;61.61;100908.91;5066634;28;20124;-63
2021/05/14 01:45:23;;;;;;;14.20;4.80;;;;;;;16.38;61.44;100918.66;5066396;28;20538;-64
2021/05/14 01:47:51;;;;;;;11.13;4.82;;;;;;;16.36;61.56;100909.78;5067649;28;20094;-64
2021/05/14 01:50:18;;;;;;;10.48;4.80;;;;;;;16.32;61.75;100908.94;5065469;28;20045;-64
2021/05/14 01:52:45;;;;;;;9.27;4.45;;;;;;;16.39;61.52;100909.78;5067225;28;20049;-64
2021/05/14 01:55:16;;;;;;;12.55;4.35;;;;;;;16.48;61.37;100903.50;5065886;28;20534;-64
2021/05/14 01:57:43;;;;;;;9.98;4.65;;;;;;;16.49;61.46;100907.94;5066386;28;20098;-64
2021/05/14 02:00:12;;;;;;;9.80;4.45;;;;;;;16.47;61.57;100904.41;5064499;28;20135;-64
2021/05/14 02:02:39;;;;;;;9.48;4.22;;;;;;;16.26;62.07;100910.75;5067256;28;20041;-64
2021/05/14 02:05:07;;;;;;;11.45;4.35;;;;;;;16.07;62.53;100909.97;5066320;28;20033;-64
2021/05/14 02:07:34;;;;;;;9.23;4.45;;;;;;;16.17;62.16;100902.78;5065692;28;20410;-63
2021/05/14 02:10:01;;;;;;;10.13;4.75;;;;;;;16.22;61.88;100906.31;5066709;28;20068;-64
2021/05/14 02:12:30;;;;;;;14.20;4.03;;;;;;;15.99;62.25;100914.41;5066451;28;20134;-65
2021/05/14 02:14:57;;;;;;;10.07;4.10;;;;;;;15.87;62.58;100914.47;5051628;28;20124;-64
2021/05/14 02:17:25;;;;;;;10.07;4.30;;;;;;;15.84;62.62;100909.16;5065364;28;20436;-64
2021/05/14 02:19:53;;;;;;;12.55;5.10;;;;;;;15.91;62.51;100914.44;5066791;28;20075;-63
2021/05/14 02:22:20;;;;;;;11.02;4.38;;;;;;;16.05;61.99;100911.72;5066103;28;20056;-64
2021/05/14 02:24:49;;;;;;;14.02;5.00;;;;;;;16.00;62.06;100913.53;5066460;28;20512;-64
2021/05/14 02:27:16;;;;;;;9.55;4.40;;;;;;;15.97;62.55;100912.63;5065209;28;20035;-64
2021/05/14 02:29:46;;;;;;;10.32;3.60;;;;;;;15.85;62.89;100921.56;5066297;28;20148;-64
2021/05/14 02:32:14;;;;;;;9.25;3.95;;;;;;;15.85;62.88;100930.44;5064629;28;20036;-63
2021/05/14 02:34:41;;;;;;;13.27;4.28;;;;;;;15.79;62.78;100932.25;5065622;28;20043;-64
2021/05/14 02:37:09;;;;;;;10.45;4.03;;;;;;;15.68;62.96;100937.59;5065705;28;20040;-64
2021/05/14 02:39:36;;;;;;;12.30;4.60;;;;;;;15.77;62.66;100937.56;5066397;28;20041;-66
2021/05/14 02:42:04;;;;;;;11.40;4.03;;;;;;;15.84;62.43;100943.75;5066764;28;20041;-66
2021/05/14 02:44:31;;;;;;;14.82;4.80;;;;;;;15.88;62.53;100945.53;5065183;28;20120;-66
2021/05/14 02:47:00;;;;;;;10.23;4.43;;;;;;;15.88;62.67;100943.72;5066255;28;20519;-66
2021/05/14 02:49:27;;;;;;;11.00;3.80;;;;;;;15.90;62.70;100947.28;5065991;28;20124;-67
2021/05/14 02:51:54;;;;;;;15.35;4.53;;;;;;;15.83;62.61;100945.53;5067738;28;20048;-65
2021/05/14 02:54:21;;;;;;;11.68;4.30;;;;;;;15.81;62.72;100935.78;5064911;28;20052;-65
2021/05/14 02:56:49;;;;;;;14.48;4.50;;;;;;;15.87;62.49;100942.00;5065886;28;20048;-64
2021/05/14 02:59:16;;;;;;;13.38;4.90;;;;;;;15.89;62.51;100944.63;5064777;28;20408;-64
2021/05/14 03:01:44;;;;;;;11.50;3.78;;;;;;;15.86;62.51;100936.66;5067841;28;20045;-64
2021/05/14 03:04:13;;;;;;;11.15;4.38;;;;;;;15.79;62.79;100943.78;5067471;28;20044;-64
2021/05/14 03:06:40;;;;;;;9.68;4.32;;;;;;;15.72;63.13;100944.69;5063567;28;20041;-64
2021/05/14 03:09:07;;;;;;;9.30;3.90;;;;;;;15.62;63.32;100947.38;5068335;28;20058;-64
2021/05/14 03:11:34;;;;;;;9.40;3.63;;;;;;;15.49;63.65;100942.03;5069444;28;20068;-64
2021/05/14 03:14:03;;;;;;;8.02;3.75;;;;;;;15.54;63.49;100948.28;5069942;28;20036;-64
2021/05/14 03:16:30;;;;;;;11.15;4.47;;;;;;;15.61;63.16;100954.47;5068371;28;20041;-65
2021/05/14 03:18:57;;;;;;;9.43;3.78;;;;;;;15.63;63.06;100952.69;5069681;28;20044;-64
2021/05/14 03:21:27;;;;;;;12.68;4.47;;;;;;;15.65;63.08;100947.34;5067634;28;20037;-64
2021/05/14 03:23:54;;;;;;;10.98;3.97;;;;;;;15.63;63.35;100957.09;5069836;28;20353;-65
2021/05/14 03:26:21;;;;;;;12.95;4.05;;;;;;;15.61;63.55;100948.25;5068426;28;20049;-64
2021/05/14 03:28:49;;;;;;;9.68;3.85;;;;;;;15.71;63.68;100956.22;5069718;28;20040;-65
2021/05/14 03:31:16;;;;;;;8.73;3.75;;;;;;;15.78;63.96;100963.28;5066695;28;20504;-65
2021/05/14 03:33:43;;;;;;;9.52;3.75;;;;;;;15.89;63.88;100971.25;5069176;28;20123;-65
2021/05/14 03:36:10;;;;;;;9.95;3.45;;;;;;;15.85;64.01;100970.38;5068492;28;20055;-64
2021/05/14 03:38:39;;;;;;;13.82;5.20;;;;;;;16.00;64.09;100971.22;5069399;28;20037;-64
2021/05/14 03:41:19;;;;;;;12.07;3.90;;;;;;;16.22;63.97;100970.25;5069168;28;20051;-64
2021/05/14 03:43:47;;;;;;;8.77;3.50;;;;;;;16.37;63.95;100975.50;5066324;28;20044;-65
2021/05/14 03:46:14;;;;;;;10.10;3.67;;;;;;;16.54;63.95;100986.09;5066944;28;20094;-65
2021/05/14 03:48:41;;;;;;;10.93;3.90;;;;;;;16.71;63.83;100978.91;5069900;28;20090;-65
2021/05/14 03:51:09;;;;;;;15.63;4.28;;;;;;;16.84;63.41;100980.63;5065491;28;20570;-65
2021/05/14 03:53:36;;;;;;;8.43;3.75;;;;;;;16.94;63.21;100978.75;5069423;28;20044;-64
2021/05/14 03:56:06;;;;;;;9.05;3.72;;;;;;;17.08;63.35;100982.22;5067955;28;20499;-64
2021/05/14 03:58:33;;;;;;;10.02;3.28;;;;;;;17.19;63.29;100987.50;5068097;28;20072;-65
2021/05/14 04:01:00;;;;;;;7.72;4.28;;;;;;;17.41;62.65;100995.28;5067689;28;20048;-65
2021/05/14 04:03:27;;;;;;;7.30;3.45;;;;;;;17.63;62.33;100996.03;5068212;28;20050;-65
2021/05/14 04:05:54;;;;;;;10.40;2.83;;;;;;;17.82;62.10;101000.28;5069143;28;20532;-65
2021/05/14 04:08:22;;;;;;;10.52;3.35;;;;;;;18.08;61.75;101013.34;5067040;28;20048;-65
2021/05/14 04:11:06;;;;;;;14.38;3.05;;;;;;;18.33;61.26;101012.16;5068079;28;20064;-65
2021/05/14 04:16:19;;;;;;;9.77;2.85;;;;;;;18.62;60.66;101025.22;5078248;28;20044;-64
2021/05/14 04:18:46;;;;;;;9.43;3.25;;;;;;;18.79;60.09;101030.31;5069016;28;20051;-65
2021/05/14 04:21:14;;;;;;;8.65;2.65;;;;;;;18.94;59.73;101034.56;5065032;28;20041;-65
2021/05/14 04:23:42;;;;;;;10.25;2.90;;;;;;;19.14;59.34;101028.94;5067606;28;20135;-65
2021/05/14 04:26:09;;;;;;;12.05;2.95;;;;;;;19.36;58.89;101038.41;5067536;28;20040;-65
2021/05/14 04:28:37;;;;;;;11.00;3.90;;;;;;;19.63;58.58;101032.59;5068438;28;20107;-65
2021/05/14 04:31:04;;;;;;;10.90;2.85;;;;;;;19.83;58.13;101034.94;5067419;28;20650;-65
2021/05/14 04:33:31;;;;;;;7.18;3.20;;;;;;;20.09;57.68;101031.75;5065749;28;23375;-65
2021/05/14 04:35:58;;;;;;;11.88;2.80;;;;;;;20.37;57.15;101034.81;5068792;28;20059;-65
2021/05/14 04:38:26;;;;;;;10.40;3.10;;;;;;;20.62;56.64;101036.06;5063651;28;20131;-65
2021/05/14 04:40:53;;;;;;;8.45;2.63;;;;;;;20.82;55.99;101027.59;5068529;28;20047;-64
2021/05/14 04:43:21;;;;;;;10.38;3.17;;;;;;;21.02;55.26;101036.09;5065564;28;20063;-65
2021/05/14 04:45:51;;;;;;;9.07;2.28;;;;;;;21.28;54.57;101046.25;5067138;28;20123;-65
2021/05/14 04:48:18;;;;;;;9.98;2.83;;;;;;;21.59;53.66;101047.28;5067195;28;20040;-65
2021/05/14 04:50:46;;;;;;;8.15;2.22;;;;;;;21.80;53.13;101048.50;5071662;28;20079;-65
2021/05/14 04:53:14;;;;;;;7.60;2.72;;;;;;;21.96;52.47;101049.94;5064586;28;20055;-65
2021/05/14 04:55:42;;;;;;;7.25;2.90;;;;;;;22.22;52.16;101051.91;5066920;28;20047;-65
2021/05/14 04:58:09;;;;;;;6.28;2.17;;;;;;;22.51;51.79;101051.09;5062542;28;20475;-65
2021/05/14 05:00:36;;;;;;;5.25;1.90;;;;;;;22.87;50.83;101055.41;5066779;28;20036;-65
2021/05/14 05:03:07;;;;;;;6.60;2.10;;;;;;;23.13;49.93;101056.41;5067734;28;20498;-65
2021/05/14 05:05:36;;;;;;;8.30;1.98;;;;;;;23.40;49.39;101053.72;5067344;28;20079;-65
2021/05/14 05:08:05;;;;;;;9.10;1.90;;;;;;;23.73;48.24;101053.56;5062693;28;20032;-65
2021/05/14 05:10:32;;;;;;;6.85;1.80;;;;;;;24.03;47.25;101046.22;5063733;28;20127;-66
2021/05/14 05:13:00;;;;;;;7.25;2.03;;;;;;;24.31;46.66;101052.44;5067048;28;20097;-65
2021/05/14 05:15:27;;;;;;;7.15;2.05;;;;;;;24.65;45.59;101053.88;5065661;28;20931;-65
2021/05/14 05:17:55;;;;;;;7.03;1.95;;;;;;;24.98;44.91;101053.50;5066337;28;20119;-65
2021/05/14 05:20:23;;;;;;;6.93;2.03;;;;;;;25.35;43.97;101058.31;5064209;28;20065;-65
2021/05/14 05:22:50;;;;;;;5.72;1.42;;;;;;;25.66;42.77;101060.69;5066974;28;20392;-66
2021/05/14 05:25:18;;;;;;;6.43;1.50;;;;;;;25.78;40.97;101059.28;5065088;28;20056;-66
2021/05/14 05:27:44;;;;;;;4.25;1.35;;;;;;;25.89;39.72;101056.97;5067280;27;20135;-65
2021/05/14 05:30:13;;;;;;;6.25;1.95;;;;;;;26.08;38.68;101057.94;5064591;28;20060;-65
2021/05/14 05:32:40;;;;;;;7.25;1.70;;;;;;;26.29;37.68;101057.97;5064045;28;20131;-66
2021/05/14 05:35:09;;;;;;;6.82;1.67;;;;;;;26.41;37.16;101065.53;5066050;28;20037;-65
2021/05/14 05:37:38;;;;;;;7.93;2.08;;;;;;;26.70;36.76;101062.41;5066248;28;20051;-65
2021/05/14 05:40:06;;;;;;;7.40;1.95;;;;;;;26.86;36.02;101066.13;5065137;28;20086;-65
2021/05/14 05:42:34;;;;;;;7.32;1.80;;;;;;;26.98;35.45;101074.69;5063337;28;20473;-66
2021/05/14 05:45:01;;;;;;;7.93;2.15;;;;;;;27.16;34.94;101073.81;5064689;28;20063;-67
2021/05/14 05:47:29;;;;;;;5.40;1.30;;;;;;;27.21;34.54;101078.06;5065714;28;20128;-65
2021/05/14 05:49:57;;;;;;;4.47;1.45;;;;;;;27.37;34.21;101078.19;5064922;28;20056;-66
2021/05/14 05:52:24;;;;;;;7.95;1.88;;;;;;;27.62;33.89;101081.47;5064836;28;20122;-65
2021/05/14 05:54:52;;;;;;;5.82;1.60;;;;;;;27.90;33.40;101082.78;5066361;28;20123;-66
2021/05/14 05:57:21;;;;;;;6.43;1.42;;;;;;;28.18;33.25;101080.44;5063413;28;20066;-65
2021/05/14 05:59:48;;;;;;;5.85;1.30;;;;;;;28.20;32.80;101080.34;5066768;28;20072;-65
2021/05/14 06:02:15;;;;;;;8.68;1.42;;;;;;;28.20;32.31;101080.34;5063183;28;20035;-66
2021/05/14 06:04:42;;;;;;;4.45;1.00;;;;;;;28.26;32.25;101080.03;5065976;28;20139;-66
2021/05/14 06:07:09;;;;;;;8.32;1.67;;;;;;;28.41;32.21;101090.97;5064566;28;20131;-65
2021/05/14 06:09:36;;;;;;;5.85;1.60;;;;;;;28.47;31.61;101087.94;5066464;28;20140;-66
2021/05/14 06:12:08;;;;;;;6.88;1.50;;;;;;;28.42;31.79;101094.56;5065435;28;20198;-65
2021/05/14 06:14:35;;;;;;;7.30;1.73;;;;;;;28.36;31.76;101101.19;5065652;28;20110;-65
2021/05/14 06:17:10;;;;;;;6.80;1.20;;;;;;;28.34;31.74;101105.84;5065201;28;20060;-66
2021/05/14 06:19:44;;;;;;;7.00;1.50;;;;;;;28.21;31.76;101102.00;5063988;28;20041;-65
2021/05/14 06:22:11;;;;;;;8.77;1.83;;;;;;;28.03;31.81;101101.06;5064219;28;20492;-65
2021/05/14 06:24:39;;;;;;;9.05;1.48;;;;;;;28.16;31.72;101104.06;5065857;28;20469;-65
2021/05/14 06:27:08;;;;;;;6.38;1.55;;;;;;;28.23;31.91;101100.06;5065283;28;20040;-64
2021/05/14 06:29:35;;;;;;;10.18;2.60;;;;;;;28.30;31.63;101101.50;5064232;28;20036;-65
2021/05/14 06:32:02;;;;;;;5.05;1.40;;;;;;;28.33;31.78;101111.34;5064151;28;20040;-65
2021/05/14 06:34:30;;;;;;;9.23;1.42;;;;;;;28.43;31.56;101112.59;5063933;28;20068;-64
2021/05/14 06:36:57;;;;;;;6.43;1.58;;;;;;;28.47;31.64;101114.22;5066426;28;20051;-65
2021/05/14 06:39:25;;;;;;;7.60;1.25;;;;;;;28.39;31.77;101111.91;5064498;28;20472;-65
2021/05/14 06:41:51;;;;;;;5.75;1.20;;;;;;;28.27;31.83;101104.41;5064847;28;20052;-65
2021/05/14 06:44:20;;;;;;;8.20;1.77;;;;;;;28.40;31.88;101107.34;5067384;28;20404;-65
2021/05/14 06:46:47;;;;;;;10.40;1.60;;;;;;;28.55;31.99;101107.41;5069713;28;20061;-65
2021/05/14 06:49:14;;;;;;;7.03;1.17;;;;;;;28.59;31.93;101109.97;5066814;28;20413;-65
2021/05/14 06:51:42;;;;;;;6.18;2.25;;;;;;;28.62;31.74;101117.97;5068958;28;20458;-65
2021/05/14 06:54:09;;;;;;;10.57;1.50;;;;;;;28.72;32.27;101125.53;5068655;28;20055;-65
2021/05/14 06:56:36;;;;;;;8.48;1.60;;;;;;;28.86;32.46;101124.81;5069978;28;20098;-65
2021/05/14 06:59:04;;;;;;;5.20;1.42;;;;;;;28.67;32.05;101129.47;5068245;28;20171;-64
2021/05/14 07:01:32;;;;;;;5.88;1.60;;;;;;;28.65;32.18;101112.34;5068053;28;20068;-65
2021/05/14 07:03:59;;;;;;;7.30;1.98;;;;;;;28.50;32.30;101109.50;5069302;28;20115;-65
2021/05/14 07:06:29;;;;;;;8.57;2.03;;;;;;;28.43;32.43;101116.19;5068297;28;20056;-65
2021/05/14 07:08:56;;;;;;;10.48;2.05;;;;;;;28.54;32.14;101113.81;5069438;28;20037;-64
2021/05/14 07:11:23;;;;;;;6.30;1.70;;;;;;;28.68;31.97;101118.53;5068743;28;20555;-65
2021/05/14 07:13:50;;;;;;;6.43;1.40;;;;;;;28.77;31.87;101125.31;5068772;28;20115;-65
2021/05/14 07:16:18;;;;;;;7.38;1.42;;;;;;;28.42;32.10;101117.16;5068064;28;20381;-66
2021/05/14 07:18:46;;;;;;;7.45;1.75;;;;;;;28.34;31.90;101107.69;5068144;28;20044;-65
2021/05/14 07:21:13;;;;;;;8.02;1.80;;;;;;;28.24;32.03;101122.69;5066941;28;20045;-66
2021/05/14 07:23:41;;;;;;;7.03;1.63;;;;;;;28.21;32.01;101117.44;5067990;28;20068;-65
2021/05/14 07:26:11;;;;;;;7.80;2.28;;;;;;;28.50;31.87;101114.91;5067659;28;20127;-66
2021/05/14 07:28:38;;;;;;;5.10;1.48;;;;;;;28.80;31.73;101107.00;5069250;28;20349;-65
2021/05/14 07:31:06;;;;;;;9.73;1.80;;;;;;;28.82;32.08;101112.34;5067717;28;20108;-65
2021/05/14 07:33:33;;;;;;;7.70;1.95;;;;;;;29.04;31.66;101104.75;5067596;28;20425;-66
2021/05/14 07:36:01;;;;;;;8.63;1.40;;;;;;;28.98;31.58;101113.25;5068484;28;20101;-65
2021/05/14 07:38:28;;;;;;;3.88;1.27;;;;;;;28.97;31.67;101113.34;5067297;28;20119;-65
2021/05/14 07:40:55;;;;;;;6.03;1.80;;;;;;;28.77;31.96;101122.59;5067145;28;20670;-65
2021/05/14 07:43:22;;;;;;;4.65;1.17;;;;;;;28.68;31.91;101123.94;5067129;28;20071;-66
2021/05/14 07:45:50;;;;;;;7.88;2.50;;;;;;;28.71;32.14;101123.78;5068342;28;20348;-65
2021/05/14 07:48:20;;;;;;;7.22;1.27;;;;;;;28.61;31.99;101124.34;5066655;28;20037;-65
2021/05/14 07:50:49;;;;;;;5.78;1.40;;;;;;;28.41;32.32;101123.59;5067963;28;20044;-65
2021/05/14 07:53:17;;;;;;;7.78;1.95;;;;;;;28.52;32.26;101123.00;5065714;28;20037;-65
2021/05/14 07:55:44;;;;;;;6.28;1.52;;;;;;;28.68;31.89;101129.38;5067567;28;20127;-65
2021/05/14 07:58:11;;;;;;;8.77;1.70;;;;;;;28.84;31.84;101135.78;5067352;28;20032;-65
2021/05/14 08:00:40;;;;;;;6.93;1.60;;;;;;;28.79;31.72;101145.13;5065923;28;20044;-67
2021/05/14 08:03:07;;;;;;;8.05;1.73;;;;;;;28.69;31.38;101133.84;5067616;28;20048;-65
2021/05/14 08:05:35;;;;;;;4.82;1.52;;;;;;;28.66;31.31;101136.72;5068123;28;20508;-66
2021/05/14 08:08:06;;;;;;;6.38;1.67;;;;;;;28.82;31.11;101148.56;5068552;28;20070;-65
2021/05/14 08:10:34;;;;;;;5.95;1.27;;;;;;;28.70;31.40;101142.88;5067253;28;20052;-66
2021/05/14 08:13:01;;;;;;;9.35;1.60;;;;;;;28.86;31.38;101142.00;5067822;28;20120;-65
2021/05/14 08:15:29;;;;;;;5.90;1.48;;;;;;;28.75;31.39;101138.97;5066513;28;20048;-65
2021/05/14 08:17:56;;;;;;;9.27;1.75;;;;;;;28.70;31.24;101143.75;5068446;28;20056;-65
2021/05/14 08:20:24;;;;;;;9.88;2.22;;;;;;;28.81;31.48;101148.66;5066883;28;20070;-65
2021/05/14 08:22:52;;;;;;;8.27;1.73;;;;;;;28.63;31.86;101146.88;5068134;28;20040;-66
2021/05/14 08:25:19;;;;;;;7.82;1.95;;;;;;;28.59;32.23;101148.00;5065792;28;20127;-65
2021/05/14 08:27:48;;;;;;;5.47;1.50;;;;;;;28.59;32.20;101159.75;5068215;28;20123;-65
2021/05/14 08:30:16;;;;;;;8.50;1.52;;;;;;;28.53;32.58;101155.53;5066210;28;20041;-65
2021/05/14 08:32:44;;;;;;;7.50;1.75;;;;;;;28.66;32.51;101152.16;5068457;28;20131;-65
2021/05/14 08:35:11;;;;;;;5.78;1.60;;;;;;;28.66;32.07;101152.16;5067175;28;20037;-66
2021/05/14 08:37:40;;;;;;;7.60;1.98;;;;;;;28.81;32.05;101156.81;5068047;28;20400;-66
2021/05/14 08:40:09;;;;;;;5.80;1.20;;;;;;;29.15;31.01;101161.28;5066210;28;20040;-66
2021/05/14 08:42:40;;;;;;;5.10;1.13;;;;;;;29.33;30.44;101154.84;5067547;28;20557;-66
2021/05/14 08:45:13;;;;;;;5.78;1.48;;;;;;;29.39;30.48;101159.97;5066511;28;20507;-65
2021/05/14 08:47:41;;;;;;;8.63;2.15;;;;;;;29.31;30.67;101151.31;5061162;28;20048;-66
2021/05/14 08:50:10;;;;;;;4.90;1.55;;;;;;;29.20;30.36;101170.09;5067191;28;20567;-65
2021/05/14 08:52:38;;;;;;;5.90;1.48;;;;;;;29.32;30.04;101164.84;5067464;28;20045;-66
2021/05/14 08:55:07;;;;;;;6.65;1.65;;;;;;;29.44;29.38;101162.41;5066784;28;20047;-65
2021/05/14 08:57:35;;;;;;;8.07;1.38;;;;;;;29.33;29.79;101154.84;5066345;28;20140;-65
2021/05/14 09:00:03;;;;;;;6.47;1.70;;;;;;;29.23;30.38;101168.06;5067014;28;20123;-65
2021/05/14 09:02:33;;;;;;;5.32;1.40;;;;;;;29.32;30.74;101163.94;5065922;28;20047;-65
2021/05/14 09:05:20;;;;;;;3.67;1.17;;;;;;;29.35;29.95;101168.34;5064151;28;20037;-65
2021/05/14 09:07:47;;;;;;;4.65;1.40;;;;;;;29.40;29.66;101175.31;5062619;28;20527;-66
2021/05/14 09:10:15;;;;;;;6.93;1.17;;;;;;;29.28;29.62;101185.00;5065453;28;20395;-65
2021/05/14 09:12:45;;;;;;;6.97;1.23;;;;;;;29.30;30.21;101176.75;5067586;28;20116;-66
2021/05/14 09:15:30;;;;;;;8.73;1.48;;;;;;;29.39;29.94;101175.41;5066071;28;20036;-66
2021/05/14 09:18:15;;;;;;;10.45;1.30;;;;;;;29.35;29.63;101169.25;5067327;28;20044;-66
2021/05/14 09:20:45;;;;;;;5.60;1.75;;;;;;;29.18;29.94;101169.28;5060244;28;20500;-66
2021/05/14 09:23:34;;;;;;;6.18;1.50;;;;;;;28.92;29.84;101182.47;5065418;28;20086;-66
2021/05/14 09:26:03;;;;;;;6.25;1.45;;;;;;;28.66;30.31;101190.22;5058227;28;20128;-66
2021/05/14 09:28:32;;;;;;;8.20;1.25;;;;;;;28.81;30.52;101192.16;5065282;28;20059;-66
2021/05/14 09:31:10;;;;;;;5.72;1.50;;;;;;;28.67;30.75;101178.38;5065940;28;20040;-66
2021/05/14 09:33:40;;;;;;;6.28;1.40;;;;;;;28.29;31.26;101188.53;5066612;28;20041;-66
2021/05/14 09:36:12;;;;;;;7.93;1.50;;;;;;;28.26;30.99;101196.81;5066813;28;20106;-66
2021/05/14 09:38:41;;;;;;;4.65;1.45;;;;;;;28.40;30.35;101200.59;5064969;28;20059;-66
2021/05/14 09:41:22;;;;;;;7.22;1.30;;;;;;;28.51;29.88;101197.31;5065686;28;20128;-65
2021/05/14 09:43:56;;;;;;;5.32;1.05;;;;;;;28.34;29.89;101206.34;5062117;28;20040;-66
2021/05/14 09:46:28;;;;;;;3.20;1.05;;;;;;;28.23;29.77;101206.00;5065171;28;20044;-66
2021/05/14 09:48:58;;;;;;;5.20;1.25;;;;;;;28.39;30.15;101206.09;5066874;28;20067;-67
2021/05/14 09:51:26;;;;;;;4.55;1.10;;;;;;;28.72;30.16;101207.06;5065921;28;20036;-66
2021/05/14 09:53:53;;;;;;;9.57;2.28;;;;;;;28.75;29.57;101211.50;5066196;28;20120;-66
2021/05/14 09:56:27;;;;;;;8.93;1.40;;;;;;;28.68;29.24;101210.03;5065120;28;20133;-66
2021/05/14 09:58:56;;;;;;;4.07;1.65;;;;;;;28.68;29.49;101207.31;5066904;28;20049;-66
2021/05/14 10:01:25;;;;;;;6.97;1.20;;;;;;;28.69;29.68;101209.94;5064206;28;20044;-66
2021/05/14 10:03:53;;;;;;;5.50;1.10;;;;;;;28.46;29.87;101210.28;5067068;28;20458;-65
2021/05/14 10:06:22;;;;;;;7.38;1.17;;;;;;;28.49;30.23;101216.41;5065149;28;20102;-65
2021/05/14 10:08:52;;;;;;;5.28;1.48;;;;;;;28.78;30.11;101209.50;5065180;28;20063;-66
2021/05/14 10:11:23;;;;;;;5.82;1.20;;;;;;;28.85;29.71;101212.78;5066807;28;20063;-66
2021/05/14 10:13:52;;;;;;;6.38;1.45;;;;;;;28.68;29.59;101210.94;5066195;28;20063;-66
2021/05/14 10:16:20;;;;;;;5.95;1.48;;;;;;;28.63;30.00;101212.97;5068117;28;20492;-66
2021/05/14 10:18:50;;;;;;;9.05;1.77;;;;;;;28.54;30.27;101214.34;5070690;28;20067;-66
2021/05/14 10:21:19;;;;;;;7.30;1.23;;;;;;;28.47;30.14;101217.47;5069504;28;20037;-66
2021/05/14 10:23:49;;;;;;;4.88;1.20;;;;;;;28.54;30.42;101208.03;5069972;28;20487;-65
2021/05/14 10:26:16;;;;;;;3.58;1.20;;;;;;;28.50;30.77;101206.41;5069324;28;20108;-66
2021/05/14 10:28:47;;;;;;;5.25;1.00;;;;;;;28.47;30.53;101207.47;5070801;28;20051;-66
2021/05/14 10:31:23;;;;;;;6.97;1.60;;;;;;;28.60;30.49;101207.72;5067728;28;20094;-66
2021/05/14 10:33:52;;;;;;;5.65;1.30;;;;;;;28.52;30.13;101207.22;5069870;28;20701;-66
2021/05/14 10:36:42;;;;;;;8.20;1.60;;;;;;;28.41;30.45;101201.47;5067920;28;20155;-66
2021/05/14 10:39:12;;;;;;;8.93;1.83;;;;;;;28.36;30.62;101209.84;5068470;28;20062;-65
2021/05/14 10:42:02;;;;;;;4.88;1.30;;;;;;;28.28;31.04;101205.78;5070195;28;20043;-67
2021/05/14 10:44:51;;;;;;;9.05;1.63;;;;;;;28.21;30.66;101207.03;5068984;28;20403;-66
2021/05/14 10:47:47;;;;;;;6.25;1.50;;;;;;;28.39;30.72;101197.97;5069004;28;20044;-66
2021/05/14 10:50:41;;;;;;;8.95;1.52;;;;;;;28.37;29.95;101210.72;5066230;28;20127;-65
2021/05/14 10:53:47;;;;;;;6.75;1.20;;;;;;;28.01;30.68;101202.59;5068692;28;20511;-67
2021/05/14 10:57:00;;;;;;;4.28;1.50;;;;;;;28.00;30.36;101201.69;5066768;28;20511;-66
2021/05/14 10:59:33;;;;;;;4.95;1.08;;;;;;;28.22;30.26;101206.09;5046936;28;20045;-66
2021/05/14 11:02:01;;;;;;;4.97;1.52;;;;;;;28.25;30.80;101201.38;5069175;28;20044;-66
2021/05/14 11:04:45;;;;;;;7.40;2.03;;;;;;;28.72;30.78;101206.19;5068199;28;20158;-66
2021/05/14 11:07:35;;;;;;;4.88;1.30;;;;;;;28.79;30.98;101202.22;5067776;28;20040;-66
2021/05/14 11:10:27;;;;;;;5.30;1.50;;;;;;;28.67;31.54;101191.97;5065614;28;20033;-66
2021/05/14 11:12:54;;;;;;;8.02;1.27;;;;;;;28.54;31.62;101197.19;5064284;28;20495;-66
2021/05/14 11:15:35;;;;;;;5.63;1.50;;;;;;;28.70;31.32;101200.81;5068116;28;20157;-66
2021/05/14 11:18:26;;;;;;;5.55;1.38;;;;;;;28.95;30.25;101211.31;5068790;28;20074;-66
2021/05/14 11:20:56;;;;;;;6.75;1.77;;;;;;;28.93;30.89;101205.09;5068158;28;20044;-66
2021/05/14 11:23:38;;;;;;;6.68;1.40;;;;;;;28.81;31.18;101203.03;5068318;28;20043;-66
2021/05/14 11:26:07;;;;;;;7.85;1.30;;;;;;;28.66;31.63;101201.97;5066985;28;20401;-66
2021/05/14 11:28:43;;;;;;;6.80;1.23;;;;;;;29.22;30.85;101209.81;5069948;28;20068;-66
2021/05/14 11:31:25;;;;;;;5.85;1.65;;;;;;;29.49;30.89;101198.41;5067626;28;20676;-65
2021/05/14 11:33:53;;;;;;;5.40;1.60;;;;;;;29.46;31.00;101204.03;5065141;28;20389;-66
2021/05/14 11:36:22;;;;;;;4.72;1.20;;;;;;;29.71;30.22;101199.84;5067962;28;20060;-66